createdAt,value
2019-02-23T00:00:47.072Z,94.80
2019-02-23T00:03:17.513Z,95.10
2019-02-23T00:05:46.883Z,94.90
2019-02-23T00:08:16.158Z,95.00
2019-02-23T00:10:45.427Z,95.20
2019-02-23T00:13:15.007Z,95.40
2019-02-23T00:15:44.279Z,95.50
2019-02-23T00:18:13.817Z,95.00
2019-02-23T00:20:44.446Z,95.10
2019-02-23T00:23:13.775Z,94.90
2019-02-23T00:25:43.052Z,94.70
2019-02-23T00:28:12.668Z,94.80
2019-02-23T00:30:41.944Z,94.90
2019-02-23T00:33:11.240Z,94.80
2019-02-23T00:35:40.520Z,94.90
2019-02-23T00:38:09.802Z,95.00
2019-02-23T00:40:39.391Z,95.50
2019-02-23T00:43:08.672Z,94.90
2019-02-23T00:45:37.971Z,95.10
2019-02-23T00:48:07.508Z,95.00
2019-02-23T00:50:37.120Z,95.30
2019-02-23T00:53:06.424Z,95.40
2019-02-23T00:55:36.036Z,95.60
2019-02-23T00:58:06.603Z,95.60
2019-02-23T01:00:35.884Z,95.60
2019-02-23T01:03:05.484Z,95.70
2019-02-23T01:05:34.755Z,95.60
2019-02-23T01:08:04.040Z,95.70
2019-02-23T01:10:33.601Z,95.80
2019-02-23T01:13:02.870Z,96.00
2019-02-23T01:15:32.139Z,96.00
2019-02-23T01:18:01.715Z,95.80
2019-02-23T01:20:30.996Z,95.80
2019-02-23T01:23:00.287Z,95.90
2019-02-23T01:25:29.935Z,96.00
2019-02-23T01:27:59.221Z,96.20
2019-02-23T01:30:28.748Z,96.20
2019-02-23T01:32:58.360Z,96.40
2019-02-23T01:35:28.485Z,96.50
2019-02-23T01:37:57.764Z,96.70
2019-02-23T01:40:27.171Z,97.00
2019-02-23T01:42:56.489Z,96.90
2019-02-23T01:45:25.831Z,97.10
2019-02-23T01:47:55.131Z,97.10
2019-02-23T01:50:24.727Z,97.00
2019-02-23T01:52:54.013Z,96.90
2019-02-23T01:55:23.619Z,96.80
2019-02-23T01:57:52.923Z,96.80
2019-02-23T02:00:23.704Z,96.70
2019-02-23T02:02:52.995Z,96.90
2019-02-23T02:05:22.445Z,96.80
2019-02-23T02:07:52.307Z,96.70
2019-02-23T02:10:21.660Z,96.70
2019-02-23T02:12:52.751Z,96.60
2019-02-23T02:15:22.031Z,96.20
2019-02-23T02:17:51.315Z,95.90
2019-02-23T02:20:20.868Z,95.80
2019-02-23T02:22:50.486Z,95.80
2019-02-23T02:25:19.851Z,95.70
2019-02-23T02:27:49.393Z,95.70
2019-02-23T02:30:19.008Z,95.50
2019-02-23T02:32:48.617Z,95.80
2019-02-23T02:35:19.255Z,95.90
2019-02-23T02:37:48.562Z,95.90
2019-02-23T02:40:17.850Z,95.70
2019-02-23T02:42:47.139Z,95.80
2019-02-23T02:45:17.186Z,95.70
2019-02-23T02:47:46.807Z,95.80
2019-02-23T02:50:24.151Z,95.60
2019-02-23T02:52:47.552Z,95.70
2019-02-23T02:55:16.870Z,95.70
2019-02-23T02:57:46.468Z,95.90
2019-02-23T03:00:16.076Z,96.40
2019-02-23T03:02:46.159Z,96.70
2019-02-23T03:05:15.440Z,96.80
2019-02-23T03:07:44.723Z,96.90
2019-02-23T03:10:14.022Z,97.10
2019-02-23T03:12:43.308Z,97.00
2019-02-23T03:15:12.626Z,96.90
2019-02-23T03:17:41.911Z,96.80
2019-02-23T03:20:11.203Z,96.70
2019-02-23T03:22:40.736Z,96.60
2019-02-23T03:25:10.355Z,96.60
2019-02-23T03:27:40.677Z,96.60
2019-02-23T03:30:11.429Z,96.50
2019-02-23T03:32:40.768Z,96.40
2019-02-23T03:35:10.058Z,96.50
2019-02-23T03:37:39.349Z,96.70
2019-02-23T03:40:09.186Z,96.90
2019-02-23T03:42:38.752Z,97.00
2019-02-23T03:45:08.567Z,97.30
2019-02-23T03:47:38.184Z,97.30
2019-02-23T03:50:08.138Z,97.10
2019-02-23T03:52:37.452Z,97.00
2019-02-23T03:55:07.121Z,97.00
2019-02-23T03:57:36.408Z,96.90
2019-02-23T04:00:09.059Z,96.90
2019-02-23T04:02:39.401Z,96.70
2019-02-23T04:05:09.588Z,96.70
2019-02-23T04:07:38.872Z,96.70
2019-02-23T04:10:09.082Z,96.60
2019-02-23T04:12:38.363Z,96.40
2019-02-23T04:15:08.036Z,96.50
2019-02-23T04:17:37.324Z,96.40
2019-02-23T04:20:08.488Z,96.40
2019-02-23T04:22:37.776Z,96.40
2019-02-23T04:25:08.497Z,96.40
2019-02-23T04:27:37.817Z,96.20
2019-02-23T04:30:08.734Z,96.20
2019-02-23T04:32:38.019Z,96.20
2019-02-23T04:35:07.379Z,96.20
2019-02-23T04:37:36.947Z,96.40
2019-02-23T04:40:07.896Z,96.20
2019-02-23T04:42:37.188Z,96.20
2019-02-23T04:45:07.515Z,96.20
2019-02-23T04:47:36.814Z,96.10
2019-02-23T04:50:09.244Z,95.90
2019-02-23T04:52:38.813Z,95.70
2019-02-23T04:55:09.044Z,95.80
2019-02-23T04:57:38.332Z,95.80
2019-02-23T05:00:10.691Z,95.80
2019-02-23T05:02:40.075Z,95.50
2019-02-23T05:05:09.956Z,95.50
2019-02-23T05:07:40.100Z,95.40
2019-02-23T05:10:09.792Z,95.40
2019-02-23T05:12:39.086Z,95.40
2019-02-23T05:15:10.392Z,95.50
2019-02-23T05:17:39.680Z,95.40
2019-02-23T05:20:08.971Z,95.50
2019-02-23T05:22:38.266Z,95.50
2019-02-23T05:25:07.544Z,95.80
2019-02-23T05:27:37.159Z,95.60
2019-02-23T05:30:09.595Z,95.70
2019-02-23T05:32:40.064Z,95.80
2019-02-23T05:35:11.830Z,96.20
2019-02-23T05:37:42.152Z,96.10
2019-02-23T05:40:14.302Z,96.20
2019-02-23T05:42:43.596Z,96.20
2019-02-23T05:45:12.951Z,96.30
2019-02-23T05:47:55.053Z,96.40
2019-02-23T05:50:24.340Z,96.30
2019-02-23T05:52:53.664Z,96.30
2019-02-23T05:55:22.952Z,96.20
2019-02-23T05:57:52.248Z,96.70
2019-02-23T06:00:21.551Z,96.10
2019-02-23T06:02:50.837Z,96.00
2019-02-23T06:05:20.119Z,96.10
2019-02-23T06:07:51.205Z,96.10
2019-02-23T06:10:20.496Z,96.00
2019-02-23T06:12:49.788Z,96.00
2019-02-23T06:15:19.073Z,96.20
2019-02-23T06:17:48.619Z,96.10
2019-02-23T06:20:18.231Z,96.20
2019-02-23T06:22:47.836Z,96.20
2019-02-23T06:25:18.582Z,96.10
2019-02-23T06:27:47.868Z,96.10
2019-02-23T06:30:18.408Z,96.00
2019-02-23T06:32:48.223Z,95.90
2019-02-23T06:35:17.520Z,96.30
2019-02-23T06:37:46.804Z,96.10
2019-02-23T06:40:16.444Z,95.90
2019-02-23T06:42:46.056Z,96.00
2019-02-23T06:45:15.345Z,96.00
2019-02-23T06:47:45.520Z,96.00
2019-02-23T06:50:14.799Z,96.20
2019-02-23T06:52:44.177Z,96.70
2019-02-23T06:55:13.805Z,96.40
2019-02-23T06:57:43.088Z,96.70
2019-02-23T07:00:16.131Z,96.00
2019-02-23T07:02:45.712Z,95.90
2019-02-23T07:05:15.322Z,95.60
2019-02-23T07:07:44.612Z,95.50
2019-02-23T07:10:15.055Z,95.50
2019-02-23T07:12:44.367Z,95.40
2019-02-23T07:15:14.790Z,95.50
2019-02-23T07:17:44.077Z,95.20
2019-02-23T07:20:13.708Z,95.10
2019-02-23T07:22:43.312Z,94.80
2019-02-23T07:25:13.467Z,94.70
2019-02-23T07:27:43.051Z,94.80
2019-02-23T07:30:14.165Z,94.60
2019-02-23T07:32:43.446Z,94.40
2019-02-23T07:35:13.108Z,94.30
2019-02-23T07:37:42.392Z,94.20
2019-02-23T07:40:13.607Z,94.10
2019-02-23T07:42:44.223Z,93.90
2019-02-23T07:45:13.592Z,94.00
2019-02-23T07:47:42.864Z,93.50
2019-02-23T07:50:14.089Z,93.40
2019-02-23T07:52:43.662Z,93.30
2019-02-23T07:55:13.274Z,93.50
2019-02-23T07:57:42.887Z,92.80
2019-02-23T08:00:15.083Z,92.70
2019-02-23T08:02:44.373Z,92.70
2019-02-23T08:05:13.648Z,92.70
2019-02-23T08:07:42.928Z,92.30
2019-02-23T08:10:13.051Z,92.50
2019-02-23T08:12:43.096Z,92.30
2019-02-23T08:15:12.646Z,92.00
2019-02-23T08:17:43.004Z,92.20
2019-02-23T08:20:13.680Z,92.20
2019-02-23T08:22:43.297Z,92.40
2019-02-23T08:25:14.095Z,92.50
2019-02-23T08:27:43.741Z,91.40
2019-02-23T08:30:14.780Z,91.60
2019-02-23T08:32:44.064Z,91.60
2019-02-23T08:35:13.356Z,91.70
2019-02-23T08:37:42.899Z,91.70
2019-02-23T08:40:18.387Z,91.60
2019-02-23T08:42:47.667Z,91.50
2019-02-23T08:45:16.948Z,91.70
2019-02-23T08:47:46.241Z,91.20
2019-02-23T08:50:16.387Z,91.10
2019-02-23T08:52:49.929Z,90.90
2019-02-23T08:55:17.496Z,91.00
2019-02-23T08:57:47.117Z,90.80
2019-02-23T09:00:19.457Z,90.30
2019-02-23T09:02:48.755Z,90.10
2019-02-23T09:05:18.036Z,89.10
2019-02-23T09:07:47.384Z,88.10
2019-02-23T09:10:16.960Z,87.30
2019-02-23T09:12:46.874Z,85.40
2019-02-23T09:15:16.218Z,86.30
2019-02-23T09:17:45.531Z,85.80
2019-02-23T09:20:15.089Z,83.50
2019-02-23T09:22:44.706Z,82.10
2019-02-23T09:25:13.990Z,82.10
2019-02-23T09:27:44.159Z,81.20
2019-02-23T09:30:14.767Z,80.60
2019-02-23T09:32:44.048Z,80.30
2019-02-23T09:35:14.576Z,79.80
2019-02-23T09:37:43.859Z,79.70
2019-02-23T09:40:20.512Z,80.10
2019-02-23T09:42:50.836Z,78.50
2019-02-23T09:45:20.115Z,78.30
2019-02-23T09:47:49.400Z,75.90
2019-02-23T09:50:18.680Z,75.40
2019-02-23T09:52:47.964Z,74.70
2019-02-23T09:55:17.528Z,74.20
2019-02-23T09:57:47.144Z,71.30
2019-02-23T10:00:16.942Z,72.10
2019-02-23T10:02:46.220Z,70.60
2019-02-23T10:05:15.764Z,70.40
2019-02-23T10:07:45.043Z,70.30
2019-02-23T10:10:14.597Z,69.40
2019-02-23T10:12:43.937Z,71.50
2019-02-23T10:15:13.703Z,73.40
2019-02-23T10:17:42.984Z,69.80
2019-02-23T10:20:13.621Z,68.40
2019-02-23T10:22:42.896Z,67.50
2019-02-23T10:25:12.193Z,68.60
2019-02-23T10:27:41.758Z,69.20
2019-02-23T10:30:15.525Z,69.70
2019-02-23T10:32:44.801Z,68.20
2019-02-23T10:35:14.453Z,69.20
2019-02-23T10:37:43.731Z,69.20
2019-02-23T10:40:13.616Z,69.90
2019-02-23T10:42:42.915Z,70.70
2019-02-23T10:45:12.933Z,68.90
2019-02-23T10:47:42.460Z,68.40
2019-02-23T10:50:13.384Z,68.50
2019-02-23T10:52:42.747Z,67.00
2019-02-23T10:55:15.567Z,65.20
2019-02-23T10:57:44.908Z,63.10
2019-02-23T11:00:25.533Z,63.40
2019-02-23T11:02:54.847Z,65.30
2019-02-23T11:05:24.265Z,62.70
2019-02-23T11:07:53.860Z,61.80
2019-02-23T11:10:23.874Z,61.10
2019-02-23T11:12:54.708Z,59.10
2019-02-23T11:15:23.992Z,58.80
2019-02-23T11:17:53.416Z,58.40
2019-02-23T11:20:23.541Z,58.20
2019-02-23T11:22:52.824Z,56.30
2019-02-23T11:25:23.511Z,54.40
2019-02-23T11:27:52.792Z,53.70
2019-02-23T11:30:22.077Z,54.40
2019-02-23T11:32:51.368Z,52.70
2019-02-23T11:35:20.655Z,50.70
2019-02-23T11:37:50.036Z,51.30
2019-02-23T11:40:19.325Z,49.90
2019-02-23T11:42:48.921Z,49.60
2019-02-23T11:45:18.211Z,50.60
2019-02-23T11:47:47.489Z,51.10
2019-02-23T11:50:16.847Z,52.80
2019-02-23T11:52:46.138Z,52.60
2019-02-23T11:55:15.472Z,51.20
2019-02-23T11:57:45.031Z,52.30
2019-02-23T12:00:15.476Z,49.90
2019-02-23T12:02:52.571Z,49.90
2019-02-23T12:05:17.101Z,50.40
2019-02-23T12:07:46.384Z,48.70
2019-02-23T12:10:16.687Z,47.80
2019-02-23T12:12:45.972Z,49.40
2019-02-23T12:15:16.879Z,47.30
2019-02-23T12:17:46.163Z,48.10
2019-02-23T12:20:15.537Z,48.80
2019-02-23T12:22:45.252Z,47.80
2019-02-23T12:25:16.213Z,48.80
2019-02-23T12:27:45.736Z,51.20
2019-02-23T12:30:15.031Z,51.10
2019-02-23T12:32:44.315Z,51.00
2019-02-23T12:35:13.610Z,50.70
2019-02-23T12:37:42.923Z,49.60
2019-02-23T12:40:12.342Z,50.30
2019-02-23T12:42:41.637Z,50.80
2019-02-23T12:45:12.979Z,50.80
2019-02-23T12:47:42.259Z,50.30
2019-02-23T12:50:12.888Z,49.20
2019-02-23T12:52:42.193Z,48.40
2019-02-23T12:55:12.132Z,48.60
2019-02-23T12:57:41.516Z,46.60
2019-02-23T13:00:15.799Z,47.50
2019-02-23T13:02:46.304Z,46.70
2019-02-23T13:05:15.580Z,45.80
2019-02-23T13:07:44.876Z,45.40
2019-02-23T13:10:14.328Z,43.40
2019-02-23T13:12:46.800Z,44.60
2019-02-23T13:15:22.140Z,42.70
2019-02-23T13:18:20.061Z,45.40
2019-02-23T13:21:13.836Z,43.50
2019-02-23T13:23:46.535Z,43.50
2019-02-23T13:26:34.348Z,42.50
2019-02-23T13:29:12.428Z,40.80
2019-02-23T13:31:56.651Z,39.70
2019-02-23T13:34:35.056Z,39.30
2019-02-23T13:37:13.733Z,39.60
2019-02-23T13:40:13.537Z,39.00
2019-02-23T13:42:55.013Z,38.20
2019-02-23T13:45:45.916Z,38.60
2019-02-23T13:48:30.327Z,38.70
2019-02-23T13:51:05.024Z,36.80
2019-02-23T13:53:51.824Z,36.20
2019-02-23T13:56:33.479Z,38.30
2019-02-23T13:59:14.979Z,36.60
2019-02-23T14:01:56.092Z,36.80
2019-02-23T14:04:40.212Z,35.60
2019-02-23T14:07:22.002Z,36.90
2019-02-23T14:10:14.144Z,35.00
2019-02-23T14:12:52.360Z,34.50
2019-02-23T14:15:51.466Z,32.30
2019-02-23T14:18:38.427Z,32.20
2019-02-23T14:21:45.553Z,33.40
2019-02-23T14:24:36.068Z,30.20
2019-02-23T14:27:28.760Z,29.00
2019-02-23T14:30:28.579Z,27.70
2019-02-23T14:33:03.487Z,28.30
2019-02-23T14:35:42.215Z,28.50
2019-02-23T14:38:35.665Z,26.50
2019-02-23T14:41:24.125Z,27.50
2019-02-23T14:44:11.117Z,27.30
2019-02-23T14:47:00.047Z,27.80
2019-02-23T14:49:49.861Z,28.20
2019-02-23T14:52:27.034Z,27.00
2019-02-23T14:55:17.258Z,29.00
2019-02-23T14:57:56.036Z,28.90
2019-02-23T15:00:39.718Z,27.40
2019-02-23T15:03:24.176Z,27.30
2019-02-23T15:06:14.716Z,27.80
2019-02-23T15:09:11.535Z,28.90
2019-02-23T15:11:49.536Z,30.00
2019-02-23T15:14:28.978Z,29.30
2019-02-23T15:17:15.311Z,28.40
2019-02-23T15:20:02.551Z,28.90
2019-02-23T15:22:50.007Z,29.40
2019-02-23T15:25:51.636Z,30.50
2019-02-23T15:28:50.217Z,31.40
2019-02-23T15:31:40.324Z,31.80
2019-02-23T15:34:39.675Z,29.80
2019-02-23T15:37:21.107Z,30.90
2019-02-23T15:40:17.587Z,30.70
2019-02-23T15:43:08.143Z,29.30
2019-02-23T15:46:03.378Z,29.30
2019-02-23T15:48:53.674Z,30.60
2019-02-23T15:51:23.270Z,30.60
2019-02-23T15:53:52.669Z,31.50
2019-02-23T15:56:22.132Z,31.60
2019-02-23T15:58:51.472Z,31.90
2019-02-23T16:01:20.757Z,31.80
2019-02-23T16:03:50.040Z,31.40
2019-02-23T16:06:21.576Z,30.90
2019-02-23T16:08:50.859Z,31.70
2019-02-23T16:11:20.136Z,30.00
2019-02-23T16:13:50.724Z,29.90
2019-02-23T16:16:20.009Z,30.50
2019-02-23T16:18:49.655Z,31.80
2019-02-23T16:21:19.307Z,33.40
2019-02-23T16:23:49.139Z,34.60
2019-02-23T16:26:18.631Z,36.50
2019-02-23T16:28:48.987Z,38.40
2019-02-23T16:31:18.383Z,40.00
2019-02-23T16:33:47.677Z,41.90
2019-02-23T16:36:17.388Z,42.40
2019-02-23T16:38:46.668Z,43.80
2019-02-23T16:41:16.195Z,46.00
2019-02-23T16:43:45.976Z,47.50
2019-02-23T16:46:15.520Z,48.80
2019-02-23T16:48:44.836Z,49.30
2019-02-23T16:51:14.437Z,50.00
2019-02-23T16:53:44.108Z,51.10
2019-02-23T16:56:14.521Z,51.90
2019-02-23T16:58:43.879Z,52.70
2019-02-23T17:01:13.200Z,53.40
2019-02-23T17:03:43.247Z,54.30
2019-02-23T17:06:12.523Z,54.60
2019-02-23T17:08:41.803Z,56.20
2019-02-23T17:11:11.088Z,56.90
2019-02-23T17:13:40.634Z,56.70
2019-02-23T17:16:10.246Z,57.10
2019-02-23T17:18:39.523Z,58.70
2019-02-23T17:21:10.321Z,57.40
2019-02-23T17:23:40.196Z,56.70
2019-02-23T17:26:09.815Z,57.00
2019-02-23T17:28:39.420Z,57.30
2019-02-23T17:31:09.033Z,56.70
2019-02-23T17:33:38.313Z,57.00
2019-02-23T17:36:08.252Z,57.10
2019-02-23T17:38:37.864Z,58.30
2019-02-23T17:41:07.137Z,58.30
2019-02-23T17:43:40.022Z,59.30
2019-02-23T17:46:08.029Z,59.50
2019-02-23T17:48:37.309Z,60.70
2019-02-23T17:51:06.605Z,61.00
2019-02-23T17:53:36.151Z,62.40
2019-02-23T17:56:12.106Z,63.40
2019-02-23T17:58:36.632Z,63.50
2019-02-23T18:01:05.917Z,65.10
2019-02-23T18:03:35.199Z,66.80
2019-02-23T18:06:04.479Z,66.90
2019-02-23T18:08:33.804Z,68.90
2019-02-23T18:11:03.083Z,69.50
2019-02-23T18:13:32.359Z,70.30
2019-02-23T18:16:03.054Z,71.50
2019-02-23T18:18:32.327Z,73.10
2019-02-23T18:21:01.623Z,73.30
2019-02-23T18:23:31.686Z,73.10
2019-02-23T18:26:01.299Z,73.10
2019-02-23T18:28:30.648Z,73.50
2019-02-23T18:30:59.927Z,74.40
2019-02-23T18:33:30.131Z,74.50
2019-02-23T18:35:59.410Z,75.20
2019-02-23T18:38:28.693Z,75.70
2019-02-23T18:40:58.344Z,74.80
2019-02-23T18:43:27.692Z,74.50
2019-02-23T18:45:57.264Z,75.70
2019-02-23T18:48:26.532Z,76.80
2019-02-23T18:50:55.819Z,76.60
2019-02-23T18:53:25.094Z,77.50
2019-02-23T18:55:54.687Z,78.00
2019-02-23T18:58:23.992Z,78.90
2019-02-23T19:00:53.267Z,78.40
2019-02-23T19:03:22.548Z,78.70
2019-02-23T19:05:52.805Z,79.10
2019-02-23T19:08:22.088Z,78.90
2019-02-23T19:10:51.367Z,79.20
2019-02-23T19:13:20.724Z,79.80
2019-02-23T19:15:50.008Z,80.40
2019-02-23T19:18:19.543Z,80.80
2019-02-23T19:20:48.857Z,80.50
2019-02-23T19:23:18.135Z,80.00
2019-02-23T19:25:48.692Z,80.50
2019-02-23T19:28:17.977Z,79.60
2019-02-23T19:30:47.260Z,79.40
2019-02-23T19:33:16.539Z,79.60
2019-02-23T19:35:46.792Z,79.80
2019-02-23T19:38:16.100Z,79.50
2019-02-23T19:40:45.380Z,79.20
2019-02-23T19:43:14.664Z,79.20
2019-02-23T19:45:44.280Z,79.80
2019-02-23T19:48:13.560Z,80.60
2019-02-23T19:50:46.383Z,80.10
2019-02-23T19:53:16.656Z,80.30
2019-02-23T19:55:45.931Z,80.00
2019-02-23T19:58:15.207Z,79.60
2019-02-23T20:00:44.508Z,80.10
2019-02-23T20:03:14.079Z,79.50
2019-02-23T20:05:43.377Z,78.20
2019-02-23T20:08:13.004Z,77.60
2019-02-23T20:10:43.013Z,77.30
2019-02-23T20:13:12.626Z,77.10
2019-02-23T20:15:41.915Z,77.00
2019-02-23T20:18:11.201Z,76.10
2019-02-23T20:20:40.565Z,75.00
2019-02-23T20:23:09.935Z,74.30
2019-02-23T20:25:39.232Z,73.40
2019-02-23T20:28:10.334Z,72.40
2019-02-23T20:30:39.916Z,71.70
2019-02-23T20:33:09.191Z,71.70
2019-02-23T20:35:38.471Z,72.00
2019-02-23T20:38:09.557Z,71.90
2019-02-23T20:40:38.836Z,71.90
2019-02-23T20:43:09.187Z,72.60
2019-02-23T20:45:38.794Z,72.90
2019-02-23T20:48:08.147Z,73.60
2019-02-23T20:50:37.820Z,74.00
2019-02-23T20:53:07.432Z,74.30
2019-02-23T20:55:36.717Z,75.20
2019-02-23T20:58:05.992Z,75.60
2019-02-23T21:00:35.272Z,75.80
2019-02-23T21:03:04.551Z,76.10
2019-02-23T21:05:33.831Z,76.80
2019-02-23T21:08:03.461Z,77.60
2019-02-23T21:10:32.740Z,78.40
2019-02-23T21:13:03.384Z,78.90
2019-02-23T21:15:33.927Z,79.40
2019-02-23T21:18:03.212Z,80.40
2019-02-23T21:20:32.852Z,80.10
2019-02-23T21:23:02.240Z,80.60
2019-02-23T21:25:31.708Z,80.20
2019-02-23T21:28:00.988Z,80.60
2019-02-23T21:30:31.127Z,79.80
2019-02-23T21:33:00.399Z,79.50
2019-02-23T21:35:29.675Z,79.60
2019-02-23T21:37:59.306Z,79.60
2019-02-23T21:40:28.918Z,79.50
2019-02-23T21:42:58.191Z,79.40
2019-02-23T21:45:27.723Z,79.30
2019-02-23T21:47:56.999Z,79.90
2019-02-23T21:50:27.428Z,79.80
2019-02-23T21:52:56.977Z,79.40
2019-02-23T21:55:26.317Z,79.20
2019-02-23T21:57:55.601Z,79.20
2019-02-23T22:00:25.195Z,79.70
2019-02-23T22:02:54.544Z,79.60
2019-02-23T22:05:24.104Z,79.70
2019-02-23T22:07:53.716Z,79.90
2019-02-23T22:10:22.994Z,80.40
2019-02-23T22:12:53.288Z,80.90
2019-02-23T22:15:22.587Z,81.10
2019-02-23T22:17:52.276Z,81.60
2019-02-23T22:20:21.812Z,81.60
2019-02-23T22:22:51.146Z,81.90
2019-02-23T22:25:20.460Z,82.20
2019-02-23T22:27:49.741Z,82.80
2019-02-23T22:30:19.029Z,82.90
2019-02-23T22:32:49.964Z,83.00
2019-02-23T22:35:19.248Z,83.20
2019-02-23T22:37:48.845Z,83.40
2019-02-23T22:40:18.471Z,83.50
2019-02-23T22:42:47.788Z,83.90
2019-02-23T22:45:17.073Z,84.80
2019-02-23T22:47:46.352Z,86.20
2019-02-23T22:50:15.631Z,87.00
2019-02-23T22:52:44.908Z,88.30
2019-02-23T22:55:14.216Z,88.80
2019-02-23T22:57:43.796Z,89.20
2019-02-23T23:00:15.612Z,89.20
2019-02-23T23:02:46.796Z,89.50
2019-02-23T23:05:16.404Z,90.10
2019-02-23T23:07:45.690Z,90.00
2019-02-23T23:10:14.972Z,90.10
2019-02-23T23:12:44.536Z,90.20
2019-02-23T23:15:14.067Z,90.10
2019-02-23T23:17:43.641Z,90.20
2019-02-23T23:20:13.489Z,90.40
2019-02-23T23:22:42.849Z,90.30
2019-02-23T23:25:12.373Z,90.80
2019-02-23T23:27:49.101Z,90.30
2019-02-23T23:30:12.968Z,90.40
2019-02-23T23:32:42.247Z,90.50
2019-02-23T23:35:13.108Z,90.50
2019-02-23T23:37:42.393Z,90.50
2019-02-23T23:40:12.604Z,90.50
2019-02-23T23:42:42.214Z,90.60
2019-02-23T23:45:11.505Z,90.70
2019-02-23T23:47:41.124Z,90.40
2019-02-23T23:50:10.405Z,90.50
2019-02-23T23:52:39.688Z,90.60
2019-02-23T23:55:09.246Z,91.00
2019-02-23T23:57:39.396Z,91.00
